createdAt,value
2022-10-21T00:00:14.710Z,10.10
2022-10-21T00:04:15.090Z,10.10
2022-10-21T00:08:15.662Z,10.00
2022-10-21T00:12:18.641Z,9.80
2022-10-21T00:16:21.877Z,9.70
2022-10-21T00:24:42.714Z,9.70
2022-10-21T00:28:46.112Z,9.70
2022-10-21T00:32:46.183Z,9.70
2022-10-21T00:36:46.310Z,9.60
2022-10-21T00:40:46.410Z,9.60
2022-10-21T00:45:23.390Z,9.60
2022-10-21T00:49:37.084Z,9.60
2022-10-21T00:53:42.524Z,9.70
2022-10-21T00:57:42.874Z,9.60
2022-10-21T01:01:46.070Z,9.60
2022-10-21T01:05:47.894Z,9.50
2022-10-21T01:09:47.985Z,9.50
2022-10-21T01:14:29.536Z,9.40
2022-10-21T01:18:42.270Z,9.40
2022-10-21T01:23:23.169Z,9.40
2022-10-21T01:27:50.635Z,9.30
2022-10-21T01:32:05.138Z,9.10
2022-10-21T01:36:25.264Z,9.00
2022-10-21T01:40:32.736Z,8.90
2022-10-21T01:44:43.697Z,8.80
2022-10-21T01:48:53.811Z,8.60
2022-10-21T01:53:00.485Z,8.60
2022-10-21T01:57:02.502Z,8.60
2022-10-21T02:01:05.919Z,8.50
2022-10-21T02:05:17.359Z,8.40
2022-10-21T02:09:17.406Z,8.40
2022-10-21T02:13:25.917Z,8.30
2022-10-21T02:17:29.639Z,8.40
2022-10-21T02:21:39.262Z,8.40
2022-10-21T02:25:43.913Z,8.40
2022-10-21T02:29:49.642Z,8.40
2022-10-21T02:34:07.527Z,8.40
2022-10-21T02:38:22.532Z,8.50
2022-10-21T02:42:31.560Z,8.50
2022-10-21T02:46:40.384Z,8.60
2022-10-21T02:50:40.615Z,8.60
2022-10-21T02:54:43.374Z,8.60
2022-10-21T02:58:43.459Z,8.60
2022-10-21T03:02:43.564Z,8.70
2022-10-21T03:06:43.620Z,8.70
2022-10-21T03:10:49.118Z,8.70
2022-10-21T03:14:50.684Z,8.80
2022-10-21T03:18:50.743Z,8.80
2022-10-21T03:22:50.775Z,8.80
2022-10-21T03:26:53.445Z,8.80
2022-10-21T03:30:53.512Z,8.80
2022-10-21T03:34:53.856Z,8.80
2022-10-21T03:38:53.943Z,8.80
2022-10-21T03:42:56.630Z,8.80
2022-10-21T03:46:56.763Z,8.70
2022-10-21T03:50:58.898Z,8.80
2022-10-21T03:54:59.029Z,8.80
2022-10-21T03:59:01.676Z,8.80
2022-10-21T04:03:01.806Z,8.80
2022-10-21T04:07:01.981Z,8.80
2022-10-21T04:11:02.732Z,8.80
2022-10-21T04:15:05.749Z,8.80
2022-10-21T04:19:05.984Z,8.90
2022-10-21T04:23:06.089Z,8.90
2022-10-21T04:27:06.424Z,8.90
2022-10-21T04:31:09.149Z,8.80
2022-10-21T04:35:10.067Z,8.80
2022-10-21T04:39:11.368Z,8.80
2022-10-21T04:43:11.704Z,8.90
2022-10-21T04:47:14.400Z,8.90
2022-10-21T04:51:14.522Z,8.90
2022-10-21T04:55:14.645Z,9.00
2022-10-21T04:59:16.023Z,9.00
2022-10-21T05:03:18.734Z,9.00
2022-10-21T05:07:19.018Z,9.00
2022-10-21T05:11:19.096Z,9.00
2022-10-21T05:15:19.599Z,9.00
2022-10-21T05:19:25.595Z,9.10
2022-10-21T05:23:29.002Z,9.10
2022-10-21T05:27:29.136Z,9.10
2022-10-21T05:31:29.646Z,9.20
2022-10-21T05:35:32.447Z,9.20
2022-10-21T05:39:32.655Z,9.20
2022-10-21T05:43:32.976Z,9.20
2022-10-21T05:47:33.955Z,9.20
2022-10-21T05:51:36.711Z,9.20
2022-10-21T05:55:37.027Z,9.30
2022-10-21T05:59:39.140Z,9.30
2022-10-21T06:03:39.514Z,9.30
2022-10-21T06:07:42.545Z,9.30
2022-10-21T06:11:51.737Z,9.30
2022-10-21T06:15:51.981Z,9.40
2022-10-21T06:19:52.162Z,9.40
2022-10-21T06:23:56.540Z,9.40
2022-10-21T06:27:59.634Z,9.50
2022-10-21T06:31:59.812Z,9.50
2022-10-21T06:36:00.194Z,9.60
2022-10-21T06:40:04.638Z,9.60
2022-10-21T06:44:04.718Z,9.80
2022-10-21T06:48:05.087Z,9.80
2022-10-21T06:52:05.335Z,9.90
2022-10-21T06:56:13.719Z,9.90
2022-10-21T07:00:17.044Z,9.90
2022-10-21T07:04:17.185Z,10.00
2022-10-21T07:08:19.814Z,10.10
2022-10-21T07:12:25.127Z,10.20
2022-10-21T07:16:29.085Z,10.40
2022-10-21T07:20:29.324Z,10.40
2022-10-21T07:24:29.536Z,10.40
2022-10-21T07:28:32.288Z,10.40
2022-10-21T07:32:53.536Z,10.40
2022-10-21T07:36:54.021Z,10.40
2022-10-21T07:40:54.129Z,10.50
2022-10-21T07:44:59.535Z,10.80
2022-10-21T07:49:00.121Z,10.80
2022-10-21T07:53:10.927Z,10.70
2022-10-21T07:57:12.542Z,10.60
2022-10-21T08:01:16.052Z,10.60
2022-10-21T08:05:16.405Z,10.60
2022-10-21T08:09:17.206Z,10.70
2022-10-21T08:13:17.430Z,10.80
2022-10-21T08:17:20.474Z,10.90
2022-10-21T08:21:20.630Z,11.20
2022-10-21T08:25:21.091Z,11.40
2022-10-21T08:29:21.307Z,11.40
2022-10-21T08:33:24.026Z,11.40
2022-10-21T08:37:25.672Z,11.50
2022-10-21T08:42:17.086Z,11.50
2022-10-21T08:46:34.306Z,11.50
2022-10-21T08:56:02.403Z,11.90
2022-10-21T09:00:41.037Z,12.00
2022-10-21T09:17:38.158Z,12.10
2022-10-21T09:49:54.054Z,12.70
2022-10-21T09:54:20.239Z,12.50
2022-10-21T09:58:53.467Z,12.40
2022-10-21T10:02:54.995Z,12.30
2022-10-21T10:06:55.394Z,12.10
2022-10-21T10:11:04.927Z,12.10
2022-10-21T10:15:30.836Z,12.10
2022-10-21T10:19:32.340Z,12.20
2022-10-21T10:23:32.394Z,12.30
2022-10-21T10:27:32.649Z,12.40
2022-10-21T10:31:38.952Z,12.60
2022-10-21T10:35:42.171Z,12.60
2022-10-21T10:39:44.794Z,12.50
2022-10-21T10:43:52.924Z,12.50
2022-10-21T10:48:05.057Z,12.60
2022-10-21T10:52:22.435Z,13.00
2022-10-21T10:56:31.841Z,13.20
2022-10-21T11:00:46.370Z,13.20
2022-10-21T11:05:11.756Z,13.30
2022-10-21T11:09:12.473Z,13.20
2022-10-21T11:13:18.272Z,13.20
2022-10-21T11:17:26.558Z,13.20
2022-10-21T11:21:47.380Z,13.00
2022-10-21T11:25:57.335Z,13.10
2022-10-21T11:30:11.478Z,13.40
2022-10-21T11:34:25.335Z,13.60
2022-10-21T11:39:11.069Z,13.60
2022-10-21T11:43:31.431Z,13.50
2022-10-21T11:47:44.574Z,13.30
2022-10-21T11:52:00.885Z,13.10
2022-10-21T11:56:20.218Z,13.00
2022-10-21T12:00:25.604Z,12.80
2022-10-21T12:04:37.247Z,12.80
2022-10-21T12:08:48.285Z,12.90
2022-10-21T12:12:58.736Z,13.00
2022-10-21T12:17:02.970Z,13.00
2022-10-21T12:21:03.862Z,13.00
2022-10-21T12:25:29.166Z,13.00
2022-10-21T12:30:00.938Z,13.10
2022-10-21T12:34:08.124Z,13.20
2022-10-21T12:38:31.582Z,13.30
2022-10-21T12:42:44.384Z,13.50
2022-10-21T12:48:00.586Z,13.70
2022-10-21T12:52:31.646Z,13.70
2022-10-21T12:56:47.886Z,13.80
2022-10-21T13:01:03.110Z,14.10
2022-10-21T13:05:08.647Z,14.40
2022-10-21T13:09:43.280Z,14.50
2022-10-21T13:25:26.909Z,15.30
2022-10-21T13:29:48.269Z,15.40
2022-10-21T13:33:55.462Z,15.40
2022-10-21T13:42:41.592Z,16.20
2022-10-21T13:46:45.063Z,16.90
2022-10-21T13:50:48.599Z,17.40
2022-10-21T13:54:49.005Z,17.80
2022-10-21T13:58:52.639Z,18.20
2022-10-21T14:02:55.941Z,18.20
2022-10-21T14:07:00.979Z,18.50
2022-10-21T14:11:04.413Z,18.80
2022-10-21T14:15:19.284Z,19.00
2022-10-21T14:19:26.265Z,19.00
2022-10-21T14:23:27.414Z,18.80
2022-10-21T14:27:32.189Z,18.40
2022-10-21T14:31:42.983Z,17.70
2022-10-21T14:36:07.072Z,17.00
2022-10-21T14:40:22.440Z,16.70
2022-10-21T14:44:26.601Z,16.40
2022-10-21T14:48:34.153Z,16.30
2022-10-21T14:52:42.711Z,16.40
2022-10-21T14:56:46.806Z,16.50
2022-10-21T15:00:47.126Z,16.30
2022-10-21T15:04:58.117Z,15.90
2022-10-21T15:09:20.525Z,15.60
2022-10-21T15:13:22.489Z,15.20
2022-10-21T15:17:22.741Z,15.10
2022-10-21T15:21:39.819Z,14.90
2022-10-21T15:25:41.277Z,14.80
2022-10-21T15:29:47.996Z,14.80
2022-10-21T15:33:50.749Z,14.80
2022-10-21T15:37:55.285Z,14.80
2022-10-21T15:41:57.472Z,14.60
2022-10-21T15:45:57.748Z,14.60
2022-10-21T15:49:58.044Z,14.50
2022-10-21T15:54:00.820Z,14.40
2022-10-21T15:58:00.976Z,14.30
2022-10-21T16:02:02.315Z,14.20
2022-10-21T16:06:02.473Z,14.00
2022-10-21T16:10:15.178Z,13.90
2022-10-21T16:14:15.421Z,13.70
2022-10-21T16:18:17.686Z,13.70
2022-10-21T16:22:23.892Z,13.60
2022-10-21T16:26:33.200Z,13.50
2022-10-21T16:30:39.196Z,13.40
2022-10-21T16:34:39.494Z,13.30
2022-10-21T16:38:39.581Z,13.20
2022-10-21T16:42:42.509Z,13.10
2022-10-21T16:46:49.797Z,13.10
2022-10-21T16:50:50.086Z,13.00
2022-10-21T16:54:50.360Z,12.90
2022-10-21T16:58:53.777Z,12.80
2022-10-21T17:02:54.509Z,12.80
2022-10-21T17:06:57.305Z,12.90
2022-10-21T17:11:00.684Z,12.90
2022-10-21T17:15:03.949Z,12.90
2022-10-21T17:19:04.133Z,12.90
2022-10-21T17:23:05.202Z,12.80
2022-10-21T17:27:05.392Z,12.70
2022-10-21T17:31:08.734Z,12.70
2022-10-21T17:35:17.084Z,12.60
2022-10-21T17:39:17.660Z,12.60
2022-10-21T17:43:18.983Z,12.60
2022-10-21T17:47:21.697Z,12.60
2022-10-21T17:51:22.489Z,12.50
2022-10-21T17:55:23.029Z,12.50
2022-10-21T17:59:23.280Z,12.50
2022-10-21T18:03:26.399Z,12.40
2022-10-21T18:07:26.533Z,12.40
2022-10-21T18:11:26.737Z,12.40
2022-10-21T18:15:28.411Z,12.40
2022-10-21T18:19:31.240Z,12.40
2022-10-21T18:23:31.601Z,12.40
2022-10-21T18:27:31.926Z,12.40
2022-10-21T18:31:35.444Z,12.40
2022-10-21T18:35:38.226Z,12.30
2022-10-21T18:39:38.456Z,12.30
2022-10-21T18:43:41.525Z,12.20
2022-10-21T18:47:42.236Z,12.20
2022-10-21T18:51:46.071Z,12.20
2022-10-21T18:55:46.338Z,12.20
2022-10-21T18:59:46.522Z,12.10
2022-10-21T19:03:47.603Z,12.10
2022-10-21T19:07:50.444Z,12.10
2022-10-21T19:11:51.069Z,12.10
2022-10-21T19:15:51.245Z,12.20
2022-10-21T19:19:52.871Z,12.20
2022-10-21T19:23:56.522Z,12.30
2022-10-21T19:27:56.617Z,12.20
2022-10-21T19:31:57.674Z,12.20
2022-10-21T19:35:57.793Z,12.10
2022-10-21T19:40:00.687Z,12.00
2022-10-21T19:44:01.615Z,11.90
2022-10-21T19:48:01.713Z,11.90
2022-10-21T19:52:05.932Z,11.90
2022-10-21T19:56:11.156Z,11.80
2022-10-21T20:00:13.965Z,11.80
2022-10-21T20:04:15.378Z,11.70
2022-10-21T20:08:15.608Z,11.70
2022-10-21T20:12:18.512Z,11.70
2022-10-21T20:16:20.869Z,11.70
2022-10-21T20:20:23.879Z,11.60
2022-10-21T20:24:24.060Z,11.60
2022-10-21T20:28:28.967Z,11.60
2022-10-21T20:32:31.808Z,11.60
2022-10-21T20:36:35.275Z,11.60
2022-10-21T20:40:35.422Z,11.70
2022-10-21T20:44:38.370Z,11.80
2022-10-21T20:48:42.524Z,11.90
2022-10-21T20:52:42.698Z,11.90
2022-10-21T20:56:44.685Z,11.90
2022-10-21T21:00:47.458Z,11.80
2022-10-21T21:04:47.603Z,11.70
2022-10-21T21:09:02.841Z,11.60
2022-10-21T21:13:08.268Z,11.70
2022-10-21T21:17:11.179Z,11.70
2022-10-21T21:21:15.379Z,11.70
2022-10-21T21:25:15.495Z,11.70
2022-10-21T21:29:16.343Z,11.60
2022-10-21T21:33:19.241Z,11.70
2022-10-21T21:37:19.332Z,11.70
2022-10-21T21:41:20.244Z,11.70
2022-10-21T21:45:20.432Z,11.70
2022-10-21T21:49:23.199Z,11.70
2022-10-21T21:53:25.029Z,11.70
2022-10-21T21:57:28.663Z,11.70
2022-10-21T22:01:32.031Z,11.70
2022-10-21T22:05:35.069Z,11.70
2022-10-21T22:09:35.347Z,11.60
2022-10-21T22:13:35.590Z,11.60
2022-10-21T22:17:35.717Z,11.50
2022-10-21T22:21:38.405Z,11.40
2022-10-21T22:25:38.705Z,11.40
2022-10-21T22:29:38.924Z,11.30
2022-10-21T22:33:40.333Z,11.30
2022-10-21T22:37:43.190Z,11.30
2022-10-21T22:41:43.461Z,11.30
2022-10-21T22:45:46.124Z,11.30
2022-10-21T22:49:49.361Z,11.30
2022-10-21T22:53:55.441Z,11.30
2022-10-21T22:57:57.018Z,11.30
2022-10-21T23:01:57.140Z,11.30
2022-10-21T23:05:57.277Z,11.30
2022-10-21T23:10:01.403Z,11.30
2022-10-21T23:14:03.056Z,11.30
2022-10-21T23:18:08.668Z,11.30
2022-10-21T23:22:08.802Z,11.30
2022-10-21T23:26:11.568Z,11.30
2022-10-21T23:30:13.672Z,11.30
2022-10-21T23:34:13.804Z,11.30
2022-10-21T23:38:13.914Z,11.40
2022-10-21T23:42:16.587Z,11.40
2022-10-21T23:46:16.905Z,11.40
2022-10-21T23:50:17.435Z,11.40
2022-10-21T23:54:17.542Z,11.50
2022-10-21T23:58:20.265Z,11.50
